Buoy 44845

sailwx.info

Track history (hours):
 
Tides and Currents Weather Stations Pressure Air Temp Water Temp Dewpoint Dewpoint Depression Visibility Wind Speed Wind Dir Waves Ship Positions

Drifting buoy 44845

Last reported at 2015-Mar-04 05:01 UTC. Time now 2015-Mar-04 07:05 UTC.
Position N 70°26' W 004°59'.

Water temperature 4.9 ° C

Date/timePositionNaut miles runAvg speedWind from/ knotsBaromVisibWave heightAir tempDewpointWater temp
2015-Mar-04 05:01N 70°26' W 004°59'0 0.2 4.9
2015-Mar-04 04:01N 70°26' W 004°59'0 0.2 4.9
2015-Mar-04 03:01N 70°26' W 004°58'0 0.1 4.9
2015-Mar-04 02:01N 70°26' W 004°58'0 0.2 4.9
2015-Mar-04 01:01N 70°26' W 004°57'0 0.1 4.9
2015-Mar-04 00:01N 70°26' W 004°57'0 0.0 4.9
2015-Mar-03 23:01N 70°26' W 004°57'0 0.1 4.9
2015-Mar-03 22:01N 70°26' W 004°57'0 0.2 4.9
2015-Mar-03 21:01N 70°26' W 004°58'0 0.3 5.1
2015-Mar-03 20:01N 70°26' W 004°58'0 0.2 5.1
2015-Mar-03 19:01N 70°27' W 004°58'0 0.2 5.2
2015-Mar-03 18:01N 70°27' W 004°59'0 0.2 5.2
2015-Mar-03 17:01N 70°27' W 004°59'0 0.1 5.2
2015-Mar-03 16:01N 70°27' W 004°59'0 0.2 5.2
2015-Mar-03 15:01N 70°27' W 004°60'0 0.3 5.3
2015-Mar-03 14:01N 70°27' W 005°00'0 0.4 5.3
2015-Mar-03 13:01N 70°26' W 005°00'0 0.4 5.3
2015-Mar-03 12:01N 70°26' W 005°01'0 0.4 5.3
2015-Mar-03 11:01N 70°25' W 005°00'0 0.5 5.3
2015-Mar-03 10:01N 70°25' W 005°01'1 0.5 5.3
2015-Mar-03 09:01N 70°24' W 005°01'1 0.5 5.3
2015-Mar-03 08:01N 70°24' W 005°02'1 0.5 5.2
2015-Mar-03 07:01N 70°23' W 005°03'1 0.6 5.3
2015-Mar-03 06:01N 70°23' W 005°03'1 0.7 5.3
2015-Mar-03 05:01N 70°22' W 005°04'1 0.7 5.2
2015-Mar-03 04:01N 70°22' W 005°05'1 0.5 5.1
2015-Mar-03 03:01N 70°21' W 005°05'0 0.4 5.0
2015-Mar-03 02:01N 70°21' W 005°06'0 0.3 5.0
2015-Mar-03 01:01N 70°21' W 005°07'0 0.3 5.0
2015-Mar-03 00:01N 70°21' W 005°08'0 0.3 4.9
2015-Mar-02 23:01N 70°21' W 005°09'0 0.3 4.9
2015-Mar-02 22:01N 70°21' W 005°10'0 0.3 4.9
2015-Mar-02 21:01N 70°21' W 005°11'0 0.3 5.0
2015-Mar-02 20:01N 70°21' W 005°12'0 0.3 5.0
2015-Mar-02 19:01N 70°20' W 005°13'0 0.4 5.0
2015-Mar-02 18:01N 70°20' W 005°14'0 0.4 5.1
2015-Mar-02 17:01N 70°20' W 005°15'0 0.4 5.1
2015-Mar-02 16:01N 70°20' W 005°16'1 0.5 5.1
2015-Mar-02 15:01N 70°20' W 005°18'0 0.4 5.1
2015-Mar-02 14:01N 70°20' W 005°19'0 0.3 5.1
2015-Mar-02 13:01N 70°20' W 005°20'0 0.3 5.0
2015-Mar-02 12:01N 70°20' W 005°21'0 0.5 4.7
2015-Mar-02 11:01N 70°20' W 005°22'1 0.5 4.7
2015-Mar-02 10:01N 70°21' W 005°24'0 0.3 4.7
2015-Mar-02 09:01N 70°21' W 005°25'0 0.2 4.7
2015-Mar-02 08:01N 70°20' W 005°26'0 0.2 4.7
2015-Mar-02 07:01N 70°20' W 005°26'0 0.2 4.6
2015-Mar-02 06:01N 70°20' W 005°27'0 0.0 4.6
2015-Mar-02 05:01N 70°20' W 005°26'0 0.1 4.5
2015-Mar-02 04:01N 70°20' W 005°26'0 0.3 4.5
2015-Mar-02 03:01N 70°20' W 005°26'0 0.2 4.6
2015-Mar-02 02:01N 70°20' W 005°26'0 0.3 4.6
2015-Mar-02 01:01N 70°19' W 005°26'0 0.4 4.6
2015-Mar-02 00:01N 70°19' W 005°27'0 0.4 4.6
2015-Mar-01 23:01N 70°19' W 005°27'0 0.5 4.6
2015-Mar-01 22:01N 70°18' W 005°28'1 0.5 4.5
2015-Mar-01 21:01N 70°18' W 005°29'0 0.5 4.5
2015-Mar-01 20:01N 70°18' W 005°30'1 0.4 4.6
2015-Mar-01 18:01N 70°17' W 005°32'0 0.3 4.6
2015-Mar-01 17:01N 70°17' W 005°32'0 0.2 4.7
2015-Mar-01 16:01N 70°17' W 005°32'0 0.1 4.7
2015-Mar-01 15:01N 70°17' W 005°32'0 0.1 4.7
2015-Mar-01 14:01N 70°17' W 005°32'0 0.2 4.6
2015-Mar-01 13:01N 70°16' W 005°32'0 0.2 4.6
2015-Mar-01 12:01N 70°16' W 005°33'0 0.2 4.7
2015-Mar-01 11:01N 70°16' W 005°34'0 0.3 4.7
2015-Mar-01 10:01N 70°16' W 005°34'0 0.4 4.8
2015-Mar-01 09:01N 70°16' W 005°35'0 0.5 4.8
2015-Mar-01 08:01N 70°15' W 005°36'1 0.6 4.7
2015-Mar-01 07:01N 70°15' W 005°38'1 0.5 4.7
2015-Mar-01 06:01N 70°14' W 005°38'0 0.5 4.7
2015-Mar-01 05:01N 70°14' W 005°39'0 0.4 4.7
2015-Mar-01 04:01N 70°14' W 005°40'0 0.3 4.7
2015-Mar-01 03:01N 70°13' W 005°40'0 0.2 4.7
2015-Mar-01 02:01N 70°13' W 005°41'0 0.2 4.6
2015-Mar-01 01:01N 70°13' W 005°41'0 0.2 4.6
2015-Mar-01 00:01N 70°13' W 005°42'0 0.3 4.5
2015-Feb-28 23:01N 70°13' W 005°43'0 0.3 4.5
2015-Feb-28 22:01N 70°13' W 005°43'0 0.3 4.5
2015-Feb-28 21:01N 70°13' W 005°44'0 0.4 4.5
2015-Feb-28 20:01N 70°13' W 005°45'0 0.4 4.5
2015-Feb-28 19:01N 70°12' W 005°45'0 0.3 4.5
2015-Feb-28 18:01N 70°12' W 005°45'0 0.3 4.5
2015-Feb-28 17:01N 70°12' W 005°45'0 0.3 4.5
2015-Feb-28 16:01N 70°11' W 005°45'0 0.3 4.6
2015-Feb-28 15:01N 70°11' W 005°44'0 0.1 4.6
2015-Feb-28 14:01N 70°11' W 005°44'0 0.2 4.6
2015-Feb-28 13:01N 70°11' W 005°44'0 0.1 4.6
2015-Feb-28 12:01N 70°11' W 005°44'0 0.1 4.6
2015-Feb-28 11:01N 70°11' W 005°44'0 0.1 4.6
2015-Feb-28 10:01N 70°11' W 005°44'0 0.2 4.6
2015-Feb-28 09:01N 70°10' W 005°44'0 0.2 4.6
2015-Feb-28 08:01N 70°10' W 005°45'0 0.3 4.6
2015-Feb-28 07:01N 70°10' W 005°45'0 0.3 4.6
2015-Feb-28 06:01N 70°10' W 005°45'0 0.4 4.6
2015-Feb-28 05:01N 70°09' W 005°45'0 0.5 4.6
2015-Feb-28 04:01N 70°09' W 005°45'0 0.4 4.6
2015-Feb-28 03:01N 70°08' W 005°45'0 0.4 4.6
2015-Feb-28 02:01N 70°08' W 005°44'0 0.5 4.5
2015-Feb-28 01:01N 70°08' W 005°44'0 0.4 4.5
2015-Feb-28 00:01N 70°07' W 005°43'0 0.3 4.5
2015-Feb-27 23:01N 70°07' W 005°43'0 0.3 4.5
2015-Feb-27 22:01N 70°07' W 005°42'0 0.4 4.5
2015-Feb-27 21:01N 70°07' W 005°41'0 0.3 4.5
2015-Feb-27 20:01N 70°06' W 005°40'0 0.4 4.5
2015-Feb-27 19:01N 70°06' W 005°40'0 0.4 4.5
2015-Feb-27 18:01N 70°06' W 005°39'1 0.5 4.5
2015-Feb-27 17:01N 70°05' W 005°38'1 0.6 4.5
2015-Feb-27 16:01N 70°05' W 005°36'1 0.6 4.6
2015-Feb-27 15:01N 70°05' W 005°35'1 0.6 4.7
2015-Feb-27 14:01N 70°04' W 005°33'1 0.5 4.7
2015-Feb-27 13:01N 70°04' W 005°32'1 0.5 4.7
2015-Feb-27 12:01N 70°04' W 005°30'0 0.4 4.7
2015-Feb-27 11:01N 70°04' W 005°29'0 0.4 4.6
2015-Feb-27 10:01N 70°04' W 005°28'1 0.5 4.5
2015-Feb-27 09:01N 70°04' W 005°26'1 0.6 4.5
2015-Feb-27 08:01N 70°04' W 005°25'1 0.5 4.4
2015-Feb-27 07:01N 70°04' W 005°23'0 0.4 4.4
2015-Feb-27 06:01N 70°03' W 005°23'1 0.6 4.4
2015-Feb-27 05:01N 70°03' W 005°21'1 0.6 4.4
2015-Feb-27 04:01N 70°03' W 005°20'1 0.8 4.4
2015-Feb-27 03:01N 70°02' W 005°18'1 0.8 4.4
2015-Feb-27 02:01N 70°01' W 005°17'1 0.8 4.5
2015-Feb-27 01:01N 70°01' W 005°15'1 0.8 4.7
2015-Feb-27 00:01N 70°01' W 005°13'1 0.7 4.7
2015-Feb-26 23:01N 70°00' W 005°11'1 0.6 4.7
2015-Feb-26 22:01N 70°00' W 005°10'0 0.5 4.7
2015-Feb-26 21:01N 69°60' W 005°08'0 0.3 4.7
2015-Feb-26 20:01N 69°60' W 005°07'0 0.3 4.6
2015-Feb-26 19:01N 69°60' W 005°07'1 0.3 4.5
2015-Feb-26 17:01N 69°59' W 005°06'2 2.1 4.5
2015-Feb-26 16:01N 70°01' W 005°08'3 3.1 4.5
2015-Feb-26 15:01N 69°58' W 005°06'1 0.9 4.5
2015-Feb-26 14:01N 69°57' W 005°05'1 1.4 4.5
2015-Feb-26 13:01N 69°56' W 005°02'2 1.5 4.7
2015-Feb-26 12:01N 69°55' W 004°58'1 1.3 4.9
2015-Feb-26 11:01N 69°55' W 004°55'1 1.3 4.9
2015-Feb-26 10:01N 69°55' W 004°51'1 1.1 5.0
2015-Feb-26 09:01N 69°54' W 004°48'1 1.1 4.9
2015-Feb-26 08:01N 69°54' W 004°45'1 0.9 4.9
2015-Feb-26 07:01N 69°54' W 004°42'1 0.9 4.9
2015-Feb-26 06:01N 69°54' W 004°39'1 0.9 4.9
2015-Feb-26 05:01N 69°54' W 004°37'1 0.9 4.9
2015-Feb-26 04:01N 69°54' W 004°34'1 0.9 4.8
2015-Feb-26 03:01N 69°54' W 004°31'1 1.0 4.8
2015-Feb-26 02:01N 69°54' W 004°29'1 0.8 4.8
2015-Feb-26 01:01N 69°53' W 004°26'1 0.8 4.5
2015-Feb-26 00:01N 69°53' W 004°24'1 0.9 4.6
2015-Feb-25 23:01N 69°53' W 004°21'1 1.0 4.6
2015-Feb-25 22:01N 69°53' W 004°19'1 1.0 4.5
2015-Feb-25 21:01N 69°52' W 004°16'1 0.9 4.6
2015-Feb-25 20:01N 69°52' W 004°14'1 0.9 4.7
2015-Feb-25 19:01N 69°51' W 004°11'1 0.8 4.8
2015-Feb-25 18:01N 69°51' W 004°09'1 0.7 4.8
2015-Feb-25 17:01N 69°51' W 004°07'1 0.6 4.9
2015-Feb-25 16:01N 69°51' W 004°05'0 0.4 4.9
2015-Feb-25 15:01N 69°51' W 004°04'0 0.3 4.9
2015-Feb-25 14:01N 69°51' W 004°03'0 0.3 4.8
2015-Feb-25 13:01N 69°51' W 004°02'0 0.4 4.9
2015-Feb-25 12:01N 69°50' W 004°02'1 0.3 4.9
2015-Feb-25 10:01N 69°50' W 003°60'0 0.3 4.9
2015-Feb-25 09:01N 69°50' W 003°59'0 0.5 5.0
2015-Feb-25 08:01N 69°50' W 003°57'1 0.6 5.2
2015-Feb-25 07:01N 69°50' W 003°56'1 0.6 5.2
2015-Feb-25 06:01N 69°50' W 003°54'1 0.6 5.2
2015-Feb-25 05:01N 69°50' W 003°52'1 1.2 5.2
2015-Feb-25 04:01N 69°50' W 003°49'0 0.0 5.3
2015-Feb-25 03:01N 69°50' W 003°49'1 0.5 5.3
2015-Feb-25 02:01N 69°50' W 003°48'0 0.4 5.4
2015-Feb-25 01:01N 69°50' W 003°46'0 0.3 5.4
2015-Feb-25 00:01N 69°50' W 003°45'0 0.3 5.4
2015-Feb-24 23:01N 69°50' W 003°44'0 0.4 5.4
2015-Feb-24 22:01N 69°50' W 003°44'0 0.4 5.4
2015-Feb-24 21:01N 69°50' W 003°43'0 0.4 5.4
2015-Feb-24 20:01N 69°51' W 003°42'1 0.6 5.5
2015-Feb-24 19:01N 69°51' W 003°40'1 0.5 5.5
2015-Feb-24 18:01N 69°51' W 003°39'1 0.5 5.5
2015-Feb-24 17:01N 69°52' W 003°38'0 0.5 5.5
2015-Feb-24 16:01N 69°52' W 003°37'1 0.5 5.5
2015-Feb-24 15:01N 69°52' W 003°36'0 0.4 5.5
2015-Feb-24 14:01N 69°53' W 003°35'0 0.4 5.5
2015-Feb-24 13:01N 69°53' W 003°34'0 0.2 5.5
2015-Feb-24 12:01N 69°53' W 003°34'0 0.2 5.5
2015-Feb-24 11:01N 69°53' W 003°33'0 0.2 5.5
2015-Feb-24 10:01N 69°53' W 003°32'0 0.4 5.5
2015-Feb-24 09:01N 69°53' W 003°31'0 0.4 5.5
2015-Feb-24 08:01N 69°53' W 003°30'0 0.4 5.5
2015-Feb-24 07:01N 69°53' W 003°29'1 0.6 5.5
2015-Feb-24 06:01N 69°52' W 003°28'1 0.6 5.5
2015-Feb-24 05:01N 69°52' W 003°26'1 0.6 5.5
2015-Feb-24 04:01N 69°52' W 003°24'1 0.5 5.5
2015-Feb-24 03:01N 69°52' W 003°23'0 0.5 5.6
2015-Feb-24 02:01N 69°52' W 003°21'0 0.4 5.6
2015-Feb-24 01:01N 69°52' W 003°20'0 0.3 5.6
2015-Feb-24 00:01N 69°53' W 003°20'0 0.4 5.6
2015-Feb-23 23:01N 69°53' W 003°19'0 0.4 5.6
2015-Feb-23 22:01N 69°53' W 003°19'0 0.4 5.6
2015-Feb-23 21:01N 69°54' W 003°19'1 0.5 5.6
2015-Feb-23 20:01N 69°54' W 003°19'0 0.4 5.5
2015-Feb-23 19:01N 69°55' W 003°18'1 0.4 5.4
2015-Feb-23 17:01N 69°55' W 003°16'1 0.7 5.4
2015-Feb-23 16:01N 69°55' W 003°14'1 0.7 5.4
2015-Feb-23 15:01N 69°55' W 003°11'1 0.7 5.4
2015-Feb-23 14:01N 69°55' W 003°09'1 0.7 5.4
2015-Feb-23 13:01N 69°55' W 003°07'1 0.6 5.4
2015-Feb-23 12:01N 69°54' W 003°06'1 0.5 5.4
2015-Feb-23 11:01N 69°54' W 003°04'1 0.6 5.4
2015-Feb-23 10:01N 69°54' W 003°03'1 0.7 5.4
2015-Feb-23 09:01N 69°54' W 003°01'1 0.7 5.4
2015-Feb-23 08:01N 69°53' W 002°59'1 0.7 5.4
2015-Feb-23 07:01N 69°53' W 002°57'1 0.7 5.4
2015-Feb-23 06:01N 69°53' W 002°55'1 0.8 5.4
2015-Feb-23 05:01N 69°53' W 002°53'1 0.8 5.4
2015-Feb-23 04:01N 69°52' W 002°51'1 0.9 5.5
2015-Feb-23 03:01N 69°52' W 002°48'1 0.9 5.4
2015-Feb-23 02:01N 69°52' W 002°46'1 0.9 5.5
2015-Feb-23 01:01N 69°51' W 002°43'1 1.0 5.5
2015-Feb-23 00:01N 69°51' W 002°41'1 0.9 5.5
2015-Feb-22 23:01N 69°51' W 002°38'1 0.8 5.5
2015-Feb-22 22:01N 69°50' W 002°36'1 0.7 5.5
2015-Feb-22 21:01N 69°50' W 002°34'1 0.6 5.5
2015-Feb-22 20:01N 69°50' W 002°32'1 0.6 5.5
2015-Feb-22 19:01N 69°50' W 002°31'0 0.5 5.5
2015-Feb-22 18:01N 69°50' W 002°29'1 0.5 5.5
2015-Feb-22 17:01N 69°50' W 002°28'1 0.5 5.5
2015-Feb-22 16:01N 69°50' W 002°26'0 0.5 5.5
2015-Feb-22 15:01N 69°50' W 002°25'0 0.5 5.5
2015-Feb-22 14:01N 69°50' W 002°24'0 0.5 5.5
2015-Feb-22 13:01N 69°49' W 002°23'0 0.4 5.5
2015-Feb-22 12:01N 69°49' W 002°21'0 0.3 5.5
2015-Feb-22 11:01N 69°50' W 002°21'0 0.3 5.4
2015-Feb-22 10:01N 69°50' W 002°20'0 0.3 5.4
2015-Feb-22 09:01N 69°50' W 002°19'0 0.3 5.4
2015-Feb-22 08:01N 69°50' W 002°19'0 0.3 5.3
2015-Feb-22 07:01N 69°50' W 002°18'1 0.3 5.3
2015-Feb-22 05:01N 69°51' W 002°17'   5.3
Track history (hours):
 
Tides and Currents Weather Stations Pressure Air Temp Water Temp Dewpoint Dewpoint Depression Visibility Wind Speed Wind Dir Waves Ship Positions

Drifting buoy 44845

Last reported at 2015-Mar-04 05:01 UTC. Time now 2015-Mar-04 07:05 UTC.
Position N 70°26' W 004°59'.

Water temperature 4.9 ° C

Date/timePositionNaut miles runAvg speedWind from/ knotsBaromVisibWave heightAir tempDewpointWater temp
2015-Mar-04 05:01N 70°26' W 004°59'0 0.2 4.9
2015-Mar-04 04:01N 70°26' W 004°59'0 0.2 4.9
2015-Mar-04 03:01N 70°26' W 004°58'0 0.1 4.9
2015-Mar-04 02:01N 70°26' W 004°58'0 0.2 4.9
2015-Mar-04 01:01N 70°26' W 004°57'0 0.1 4.9
2015-Mar-04 00:01N 70°26' W 004°57'0 0.0 4.9
2015-Mar-03 23:01N 70°26' W 004°57'0 0.1 4.9
2015-Mar-03 22:01N 70°26' W 004°57'0 0.2 4.9
2015-Mar-03 21:01N 70°26' W 004°58'0 0.3 5.1
2015-Mar-03 20:01N 70°26' W 004°58'0 0.2 5.1
2015-Mar-03 19:01N 70°27' W 004°58'0 0.2 5.2
2015-Mar-03 18:01N 70°27' W 004°59'0 0.2 5.2
2015-Mar-03 17:01N 70°27' W 004°59'0 0.1 5.2
2015-Mar-03 16:01N 70°27' W 004°59'0 0.2 5.2
2015-Mar-03 15:01N 70°27' W 004°60'0 0.3 5.3
2015-Mar-03 14:01N 70°27' W 005°00'0 0.4 5.3
2015-Mar-03 13:01N 70°26' W 005°00'0 0.4 5.3
2015-Mar-03 12:01N 70°26' W 005°01'0 0.4 5.3
2015-Mar-03 11:01N 70°25' W 005°00'0 0.5 5.3
2015-Mar-03 10:01N 70°25' W 005°01'1 0.5 5.3
2015-Mar-03 09:01N 70°24' W 005°01'1 0.5 5.3
2015-Mar-03 08:01N 70°24' W 005°02'1 0.5 5.2
2015-Mar-03 07:01N 70°23' W 005°03'1 0.6 5.3
2015-Mar-03 06:01N 70°23' W 005°03'1 0.7 5.3
2015-Mar-03 05:01N 70°22' W 005°04'1 0.7 5.2
2015-Mar-03 04:01N 70°22' W 005°05'1 0.5 5.1
2015-Mar-03 03:01N 70°21' W 005°05'0 0.4 5.0
2015-Mar-03 02:01N 70°21' W 005°06'0 0.3 5.0
2015-Mar-03 01:01N 70°21' W 005°07'0 0.3 5.0
2015-Mar-03 00:01N 70°21' W 005°08'0 0.3 4.9
2015-Mar-02 23:01N 70°21' W 005°09'0 0.3 4.9
2015-Mar-02 22:01N 70°21' W 005°10'0 0.3 4.9
2015-Mar-02 21:01N 70°21' W 005°11'0 0.3 5.0
2015-Mar-02 20:01N 70°21' W 005°12'0 0.3 5.0
2015-Mar-02 19:01N 70°20' W 005°13'0 0.4 5.0
2015-Mar-02 18:01N 70°20' W 005°14'0 0.4 5.1
2015-Mar-02 17:01N 70°20' W 005°15'0 0.4 5.1
2015-Mar-02 16:01N 70°20' W 005°16'1 0.5 5.1
2015-Mar-02 15:01N 70°20' W 005°18'0 0.4 5.1
2015-Mar-02 14:01N 70°20' W 005°19'0 0.3 5.1
2015-Mar-02 13:01N 70°20' W 005°20'0 0.3 5.0
2015-Mar-02 12:01N 70°20' W 005°21'0 0.5 4.7
2015-Mar-02 11:01N 70°20' W 005°22'1 0.5 4.7
2015-Mar-02 10:01N 70°21' W 005°24'0 0.3 4.7
2015-Mar-02 09:01N 70°21' W 005°25'0 0.2 4.7
2015-Mar-02 08:01N 70°20' W 005°26'0 0.2 4.7
2015-Mar-02 07:01N 70°20' W 005°26'0 0.2 4.6
2015-Mar-02 06:01N 70°20' W 005°27'0 0.0 4.6
2015-Mar-02 05:01N 70°20' W 005°26'0 0.1 4.5
2015-Mar-02 04:01N 70°20' W 005°26'0 0.3 4.5
2015-Mar-02 03:01N 70°20' W 005°26'0 0.2 4.6
2015-Mar-02 02:01N 70°20' W 005°26'0 0.3 4.6
2015-Mar-02 01:01N 70°19' W 005°26'0 0.4 4.6
2015-Mar-02 00:01N 70°19' W 005°27'0 0.4 4.6
2015-Mar-01 23:01N 70°19' W 005°27'0 0.5 4.6
2015-Mar-01 22:01N 70°18' W 005°28'1 0.5 4.5
2015-Mar-01 21:01N 70°18' W 005°29'0 0.5 4.5
2015-Mar-01 20:01N 70°18' W 005°30'1 0.4 4.6
2015-Mar-01 18:01N 70°17' W 005°32'0 0.3 4.6
2015-Mar-01 17:01N 70°17' W 005°32'0 0.2 4.7
2015-Mar-01 16:01N 70°17' W 005°32'0 0.1 4.7
2015-Mar-01 15:01N 70°17' W 005°32'0 0.1 4.7
2015-Mar-01 14:01N 70°17' W 005°32'0 0.2 4.6
2015-Mar-01 13:01N 70°16' W 005°32'0 0.2 4.6
2015-Mar-01 12:01N 70°16' W 005°33'0 0.2 4.7
2015-Mar-01 11:01N 70°16' W 005°34'0 0.3 4.7
2015-Mar-01 10:01N 70°16' W 005°34'0 0.4 4.8
2015-Mar-01 09:01N 70°16' W 005°35'0 0.5 4.8
2015-Mar-01 08:01N 70°15' W 005°36'1 0.6 4.7
2015-Mar-01 07:01N 70°15' W 005°38'1 0.5 4.7
2015-Mar-01 06:01N 70°14' W 005°38'0 0.5 4.7
2015-Mar-01 05:01N 70°14' W 005°39'0 0.4 4.7
2015-Mar-01 04:01N 70°14' W 005°40'0 0.3 4.7
2015-Mar-01 03:01N 70°13' W 005°40'0 0.2 4.7
2015-Mar-01 02:01N 70°13' W 005°41'0 0.2 4.6
2015-Mar-01 01:01N 70°13' W 005°41'0 0.2 4.6
2015-Mar-01 00:01N 70°13' W 005°42'0 0.3 4.5
2015-Feb-28 23:01N 70°13' W 005°43'0 0.3 4.5
2015-Feb-28 22:01N 70°13' W 005°43'0 0.3 4.5
2015-Feb-28 21:01N 70°13' W 005°44'0 0.4 4.5
2015-Feb-28 20:01N 70°13' W 005°45'0 0.4 4.5
2015-Feb-28 19:01N 70°12' W 005°45'0 0.3 4.5
2015-Feb-28 18:01N 70°12' W 005°45'0 0.3 4.5
2015-Feb-28 17:01N 70°12' W 005°45'0 0.3 4.5
2015-Feb-28 16:01N 70°11' W 005°45'0 0.3 4.6
2015-Feb-28 15:01N 70°11' W 005°44'0 0.1 4.6
2015-Feb-28 14:01N 70°11' W 005°44'0 0.2 4.6
2015-Feb-28 13:01N 70°11' W 005°44'0 0.1 4.6
2015-Feb-28 12:01N 70°11' W 005°44'0 0.1 4.6
2015-Feb-28 11:01N 70°11' W 005°44'0 0.1 4.6
2015-Feb-28 10:01N 70°11' W 005°44'0 0.2 4.6
2015-Feb-28 09:01N 70°10' W 005°44'0 0.2 4.6
2015-Feb-28 08:01N 70°10' W 005°45'0 0.3 4.6
2015-Feb-28 07:01N 70°10' W 005°45'0 0.3 4.6
2015-Feb-28 06:01N 70°10' W 005°45'0 0.4 4.6
2015-Feb-28 05:01N 70°09' W 005°45'0 0.5 4.6
2015-Feb-28 04:01N 70°09' W 005°45'0 0.4 4.6
2015-Feb-28 03:01N 70°08' W 005°45'0 0.4 4.6
2015-Feb-28 02:01N 70°08' W 005°44'0 0.5 4.5
2015-Feb-28 01:01N 70°08' W 005°44'0 0.4 4.5
2015-Feb-28 00:01N 70°07' W 005°43'0 0.3 4.5
2015-Feb-27 23:01N 70°07' W 005°43'0 0.3 4.5
2015-Feb-27 22:01N 70°07' W 005°42'0 0.4 4.5
2015-Feb-27 21:01N 70°07' W 005°41'0 0.3 4.5
2015-Feb-27 20:01N 70°06' W 005°40'0 0.4 4.5
2015-Feb-27 19:01N 70°06' W 005°40'0 0.4 4.5
2015-Feb-27 18:01N 70°06' W 005°39'1 0.5 4.5
2015-Feb-27 17:01N 70°05' W 005°38'1 0.6 4.5
2015-Feb-27 16:01N 70°05' W 005°36'1 0.6 4.6
2015-Feb-27 15:01N 70°05' W 005°35'1 0.6 4.7
2015-Feb-27 14:01N 70°04' W 005°33'1 0.5 4.7
2015-Feb-27 13:01N 70°04' W 005°32'1 0.5 4.7
2015-Feb-27 12:01N 70°04' W 005°30'0 0.4 4.7
2015-Feb-27 11:01N 70°04' W 005°29'0 0.4 4.6
2015-Feb-27 10:01N 70°04' W 005°28'1 0.5 4.5
2015-Feb-27 09:01N 70°04' W 005°26'1 0.6 4.5
2015-Feb-27 08:01N 70°04' W 005°25'1 0.5 4.4
2015-Feb-27 07:01N 70°04' W 005°23'0 0.4 4.4
2015-Feb-27 06:01N 70°03' W 005°23'1 0.6 4.4
2015-Feb-27 05:01N 70°03' W 005°21'1 0.6 4.4
2015-Feb-27 04:01N 70°03' W 005°20'1 0.8 4.4
2015-Feb-27 03:01N 70°02' W 005°18'1 0.8 4.4
2015-Feb-27 02:01N 70°01' W 005°17'1 0.8 4.5
2015-Feb-27 01:01N 70°01' W 005°15'1 0.8 4.7
2015-Feb-27 00:01N 70°01' W 005°13'1 0.7 4.7
2015-Feb-26 23:01N 70°00' W 005°11'1 0.6 4.7
2015-Feb-26 22:01N 70°00' W 005°10'0 0.5 4.7
2015-Feb-26 21:01N 69°60' W 005°08'0 0.3 4.7
2015-Feb-26 20:01N 69°60' W 005°07'0 0.3 4.6
2015-Feb-26 19:01N 69°60' W 005°07'1 0.3 4.5
2015-Feb-26 17:01N 69°59' W 005°06'2 2.1 4.5
2015-Feb-26 16:01N 70°01' W 005°08'3 3.1 4.5
2015-Feb-26 15:01N 69°58' W 005°06'1 0.9 4.5
2015-Feb-26 14:01N 69°57' W 005°05'1 1.4 4.5
2015-Feb-26 13:01N 69°56' W 005°02'2 1.5 4.7
2015-Feb-26 12:01N 69°55' W 004°58'1 1.3 4.9
2015-Feb-26 11:01N 69°55' W 004°55'1 1.3 4.9
2015-Feb-26 10:01N 69°55' W 004°51'1 1.1 5.0
2015-Feb-26 09:01N 69°54' W 004°48'1 1.1 4.9
2015-Feb-26 08:01N 69°54' W 004°45'1 0.9 4.9
2015-Feb-26 07:01N 69°54' W 004°42'1 0.9 4.9
2015-Feb-26 06:01N 69°54' W 004°39'1 0.9 4.9
2015-Feb-26 05:01N 69°54' W 004°37'1 0.9 4.9
2015-Feb-26 04:01N 69°54' W 004°34'1 0.9 4.8
2015-Feb-26 03:01N 69°54' W 004°31'1 1.0 4.8
2015-Feb-26 02:01N 69°54' W 004°29'1 0.8 4.8
2015-Feb-26 01:01N 69°53' W 004°26'1 0.8 4.5
2015-Feb-26 00:01N 69°53' W 004°24'1 0.9 4.6
2015-Feb-25 23:01N 69°53' W 004°21'1 1.0 4.6
2015-Feb-25 22:01N 69°53' W 004°19'1 1.0 4.5
2015-Feb-25 21:01N 69°52' W 004°16'1 0.9 4.6
2015-Feb-25 20:01N 69°52' W 004°14'1 0.9 4.7
2015-Feb-25 19:01N 69°51' W 004°11'1 0.8 4.8
2015-Feb-25 18:01N 69°51' W 004°09'1 0.7 4.8
2015-Feb-25 17:01N 69°51' W 004°07'1 0.6 4.9
2015-Feb-25 16:01N 69°51' W 004°05'0 0.4 4.9
2015-Feb-25 15:01N 69°51' W 004°04'0 0.3 4.9
2015-Feb-25 14:01N 69°51' W 004°03'0 0.3 4.8
2015-Feb-25 13:01N 69°51' W 004°02'0 0.4 4.9
2015-Feb-25 12:01N 69°50' W 004°02'1 0.3 4.9
2015-Feb-25 10:01N 69°50' W 003°60'0 0.3 4.9
2015-Feb-25 09:01N 69°50' W 003°59'0 0.5 5.0
2015-Feb-25 08:01N 69°50' W 003°57'1 0.6 5.2
2015-Feb-25 07:01N 69°50' W 003°56'1 0.6 5.2
2015-Feb-25 06:01N 69°50' W 003°54'1 0.6 5.2
2015-Feb-25 05:01N 69°50' W 003°52'1 1.2 5.2
2015-Feb-25 04:01N 69°50' W 003°49'0 0.0 5.3
2015-Feb-25 03:01N 69°50' W 003°49'1 0.5 5.3
2015-Feb-25 02:01N 69°50' W 003°48'0 0.4 5.4
2015-Feb-25 01:01N 69°50' W 003°46'0 0.3 5.4
2015-Feb-25 00:01N 69°50' W 003°45'0 0.3 5.4
2015-Feb-24 23:01N 69°50' W 003°44'0 0.4 5.4
2015-Feb-24 22:01N 69°50' W 003°44'0 0.4 5.4
2015-Feb-24 21:01N 69°50' W 003°43'0 0.4 5.4
2015-Feb-24 20:01N 69°51' W 003°42'1 0.6 5.5
2015-Feb-24 19:01N 69°51' W 003°40'1 0.5 5.5
2015-Feb-24 18:01N 69°51' W 003°39'1 0.5 5.5
2015-Feb-24 17:01N 69°52' W 003°38'0 0.5 5.5
2015-Feb-24 16:01N 69°52' W 003°37'1 0.5 5.5
2015-Feb-24 15:01N 69°52' W 003°36'0 0.4 5.5
2015-Feb-24 14:01N 69°53' W 003°35'0 0.4 5.5
2015-Feb-24 13:01N 69°53' W 003°34'0 0.2 5.5
2015-Feb-24 12:01N 69°53' W 003°34'0 0.2 5.5
2015-Feb-24 11:01N 69°53' W 003°33'0 0.2 5.5
2015-Feb-24 10:01N 69°53' W 003°32'0 0.4 5.5
2015-Feb-24 09:01N 69°53' W 003°31'0 0.4 5.5
2015-Feb-24 08:01N 69°53' W 003°30'0 0.4 5.5
2015-Feb-24 07:01N 69°53' W 003°29'1 0.6 5.5
2015-Feb-24 06:01N 69°52' W 003°28'1 0.6 5.5
2015-Feb-24 05:01N 69°52' W 003°26'1 0.6 5.5
2015-Feb-24 04:01N 69°52' W 003°24'1 0.5 5.5
2015-Feb-24 03:01N 69°52' W 003°23'0 0.5 5.6
2015-Feb-24 02:01N 69°52' W 003°21'0 0.4 5.6
2015-Feb-24 01:01N 69°52' W 003°20'0 0.3 5.6
2015-Feb-24 00:01N 69°53' W 003°20'0 0.4 5.6
2015-Feb-23 23:01N 69°53' W 003°19'0 0.4 5.6
2015-Feb-23 22:01N 69°53' W 003°19'0 0.4 5.6
2015-Feb-23 21:01N 69°54' W 003°19'1 0.5 5.6
2015-Feb-23 20:01N 69°54' W 003°19'0 0.4 5.5
2015-Feb-23 19:01N 69°55' W 003°18'1 0.4 5.4
2015-Feb-23 17:01N 69°55' W 003°16'1 0.7 5.4
2015-Feb-23 16:01N 69°55' W 003°14'1 0.7 5.4
2015-Feb-23 15:01N 69°55' W 003°11'1 0.7 5.4
2015-Feb-23 14:01N 69°55' W 003°09'1 0.7 5.4
2015-Feb-23 13:01N 69°55' W 003°07'1 0.6 5.4
2015-Feb-23 12:01N 69°54' W 003°06'1 0.5 5.4
2015-Feb-23 11:01N 69°54' W 003°04'1 0.6 5.4
2015-Feb-23 10:01N 69°54' W 003°03'1 0.7 5.4
2015-Feb-23 09:01N 69°54' W 003°01'1 0.7 5.4
2015-Feb-23 08:01N 69°53' W 002°59'1 0.7 5.4
2015-Feb-23 07:01N 69°53' W 002°57'1 0.7 5.4
2015-Feb-23 06:01N 69°53' W 002°55'1 0.8 5.4
2015-Feb-23 05:01N 69°53' W 002°53'1 0.8 5.4
2015-Feb-23 04:01N 69°52' W 002°51'1 0.9 5.5
2015-Feb-23 03:01N 69°52' W 002°48'1 0.9 5.4
2015-Feb-23 02:01N 69°52' W 002°46'1 0.9 5.5
2015-Feb-23 01:01N 69°51' W 002°43'1 1.0 5.5
2015-Feb-23 00:01N 69°51' W 002°41'1 0.9 5.5
2015-Feb-22 23:01N 69°51' W 002°38'1 0.8 5.5
2015-Feb-22 22:01N 69°50' W 002°36'1 0.7 5.5
2015-Feb-22 21:01N 69°50' W 002°34'1 0.6 5.5
2015-Feb-22 20:01N 69°50' W 002°32'1 0.6 5.5
2015-Feb-22 19:01N 69°50' W 002°31'0 0.5 5.5
2015-Feb-22 18:01N 69°50' W 002°29'1 0.5 5.5
2015-Feb-22 17:01N 69°50' W 002°28'1 0.5 5.5
2015-Feb-22 16:01N 69°50' W 002°26'0 0.5 5.5
2015-Feb-22 15:01N 69°50' W 002°25'0 0.5 5.5
2015-Feb-22 14:01N 69°50' W 002°24'0 0.5 5.5
2015-Feb-22 13:01N 69°49' W 002°23'0 0.4 5.5
2015-Feb-22 12:01N 69°49' W 002°21'0 0.3 5.5
2015-Feb-22 11:01N 69°50' W 002°21'0 0.3 5.4
2015-Feb-22 10:01N 69°50' W 002°20'0 0.3 5.4
2015-Feb-22 09:01N 69°50' W 002°19'0 0.3 5.4
2015-Feb-22 08:01N 69°50' W 002°19'0 0.3 5.3
2015-Feb-22 07:01N 69°50' W 002°18'1 0.3 5.3
2015-Feb-22 05:01N 69°51' W 002°17'   5.3

Dump ship's entire track history